aviador You're here:

KEPH Decoded Metar

EPHRATA in WA, USA
Report Time2017-12-15 14:04:00
UTC Time2017-12-15 14:12:08
Flight Rules lifr LIFR
Wind190° at 03 kt
W.Decomp.*RWY 21: 2.4 kt HW 1.8 kt LCW
RWY 22: 2.1 kt HW 2.2 kt LCW
RWY 11: 1.3 kt HW 2.7 kt RCW
W.Rank190° ranks 15
Current wind is below 190° avg. (7.7)
Visibility4023 m
Phenomena:Mist
Clouds:Broken 003 Hf
Overcast 014 Hf
Expected CloudBase > 800 ft AGL from Temp-Dew spread
Ceiling300 ft
Temp-1°C (ISA -14)
Dew Point-3°C (86% RH)
AAT-4.5°C
QNH1024 hPa
Density Alt-696 ft
Elevation1,257 ft
Report Wrong Elevation
Raw Report
KEPH 151404Z AUTO 19003KT 2 1/2SM BR BKN003 OVC014 M01/M03 A3023
RMK AO2 T10111033=

Extra information for KEPH:More info

Metar Taf Metar & Taf Last 4 Metars F.Rules Stats Wind Profile Meteogram Temp Stats Airport Information Weather charts Add Link Nearby VenuesMetar ALERT Operation Metar Decoded Social comments

AIRNAV info for KEPH